sensor_id;sensor_type;location;lat;lon;timestamp;pressure;altitude;pressure_sealevel;temperature;humidity
65384;BME280;51986;52.788;41.368;2023-12-04T00:01:17;98285.47;;;0.02;61.44
65384;BME280;51986;52.788;41.368;2023-12-04T00:03:44;98293.94;;;-0.24;61.38
65384;BME280;51986;52.788;41.368;2023-12-04T00:06:12;98288.06;;;-0.40;61.86
65384;BME280;51986;52.788;41.368;2023-12-04T00:08:39;98269.63;;;-0.58;61.53
65384;BME280;51986;52.788;41.368;2023-12-04T00:11:07;98295.56;;;-0.55;61.06
65384;BME280;51986;52.788;41.368;2023-12-04T00:13:34;98305.13;;;-0.59;60.53
65384;BME280;51986;52.788;41.368;2023-12-04T00:16:01;98261.34;;;-0.83;60.78
65384;BME280;51986;52.788;41.368;2023-12-04T00:18:29;98290.19;;;-0.85;61.36
65384;BME280;51986;52.788;41.368;2023-12-04T00:20:56;98290.50;;;-1.06;61.38
65384;BME280;51986;52.788;41.368;2023-12-04T00:23:23;98278.44;;;-0.98;61.46
65384;BME280;51986;52.788;41.368;2023-12-04T00:25:51;98290.16;;;-1.04;61.28
65384;BME280;51986;52.788;41.368;2023-12-04T00:28:18;98299.22;;;-1.30;61.30
65384;BME280;51986;52.788;41.368;2023-12-04T00:30:45;98308.00;;;-1.34;61.24
65384;BME280;51986;52.788;41.368;2023-12-04T00:33:12;98329.44;;;-1.34;61.00
65384;BME280;51986;52.788;41.368;2023-12-04T00:35:40;98317.91;;;-1.36;60.68
65384;BME280;51986;52.788;41.368;2023-12-04T00:38:08;98304.50;;;-1.73;61.14
65384;BME280;51986;52.788;41.368;2023-12-04T00:40:35;98307.47;;;-2.03;61.43
65384;BME280;51986;52.788;41.368;2023-12-04T00:43:02;98328.75;;;-1.94;61.66
65384;BME280;51986;52.788;41.368;2023-12-04T00:45:29;98334.28;;;-2.08;62.44
65384;BME280;51986;52.788;41.368;2023-12-04T00:47:57;98317.03;;;-2.19;62.58
65384;BME280;51986;52.788;41.368;2023-12-04T00:50:24;98372.63;;;-2.10;62.71
65384;BME280;51986;52.788;41.368;2023-12-04T00:52:51;98351.50;;;-1.99;62.78
65384;BME280;51986;52.788;41.368;2023-12-04T00:55:18;98349.25;;;-2.01;62.79
65384;BME280;51986;52.788;41.368;2023-12-04T00:57:45;98340.19;;;-1.79;62.64
65384;BME280;51986;52.788;41.368;2023-12-04T01:00:13;98321.91;;;-2.02;62.47
65384;BME280;51986;52.788;41.368;2023-12-04T01:02:40;98373.22;;;-1.88;61.61
65384;BME280;51986;52.788;41.368;2023-12-04T01:05:07;98321.06;;;-1.90;61.58
65384;BME280;51986;52.788;41.368;2023-12-04T01:07:34;98364.91;;;-1.94;61.01
65384;BME280;51986;52.788;41.368;2023-12-04T01:10:01;98359.41;;;-2.36;60.60
65384;BME280;51986;52.788;41.368;2023-12-04T01:12:28;98348.34;;;-2.49;58.48
65384;BME280;51986;52.788;41.368;2023-12-04T01:14:55;98352.25;;;-2.55;58.41
65384;BME280;51986;52.788;41.368;2023-12-04T01:17:22;98367.59;;;-2.46;58.34
65384;BME280;51986;52.788;41.368;2023-12-04T01:19:53;98363.94;;;-2.45;58.09
65384;BME280;51986;52.788;41.368;2023-12-04T01:22:20;98377.09;;;-2.63;58.55
65384;BME280;51986;52.788;41.368;2023-12-04T01:24:47;98398.31;;;-2.69;58.90
65384;BME280;51986;52.788;41.368;2023-12-04T01:27:14;98412.72;;;-2.68;59.00
65384;BME280;51986;52.788;41.368;2023-12-04T01:29:41;98410.84;;;-2.56;57.83
65384;BME280;51986;52.788;41.368;2023-12-04T01:32:08;98422.03;;;-2.39;58.20
65384;BME280;51986;52.788;41.368;2023-12-04T01:34:35;98409.75;;;-2.42;58.78
65384;BME280;51986;52.788;41.368;2023-12-04T01:37:02;98404.06;;;-2.36;58.36
65384;BME280;51986;52.788;41.368;2023-12-04T01:39:30;98405.84;;;-2.24;58.25
65384;BME280;51986;52.788;41.368;2023-12-04T01:41:57;98405.13;;;-2.37;59.08
65384;BME280;51986;52.788;41.368;2023-12-04T01:44:24;98422.09;;;-2.23;58.14
65384;BME280;51986;52.788;41.368;2023-12-04T01:46:51;98424.03;;;-2.20;58.34
65384;BME280;51986;52.788;41.368;2023-12-04T01:49:18;98419.50;;;-2.23;57.90
65384;BME280;51986;52.788;41.368;2023-12-04T01:51:46;98413.06;;;-2.30;57.35
65384;BME280;51986;52.788;41.368;2023-12-04T01:54:13;98428.84;;;-2.59;57.19
65384;BME280;51986;52.788;41.368;2023-12-04T01:56:40;98446.81;;;-2.63;57.50
65384;BME280;51986;52.788;41.368;2023-12-04T01:59:07;98441.09;;;-2.44;57.93
65384;BME280;51986;52.788;41.368;2023-12-04T02:01:36;98439.94;;;-2.59;57.47
65384;BME280;51986;52.788;41.368;2023-12-04T02:04:03;98437.41;;;-2.43;57.19
65384;BME280;51986;52.788;41.368;2023-12-04T02:06:31;98443.78;;;-2.40;57.54
65384;BME280;51986;52.788;41.368;2023-12-04T02:08:59;98452.84;;;-2.59;57.97
65384;BME280;51986;52.788;41.368;2023-12-04T02:11:26;98457.69;;;-2.69;57.86
65384;BME280;51986;52.788;41.368;2023-12-04T02:13:53;98461.22;;;-2.62;58.08
65384;BME280;51986;52.788;41.368;2023-12-04T02:16:23;98474.63;;;-2.32;57.54
65384;BME280;51986;52.788;41.368;2023-12-04T02:18:53;98466.53;;;-2.18;57.37
65384;BME280;51986;52.788;41.368;2023-12-04T02:21:20;98460.16;;;-2.08;58.04
65384;BME280;51986;52.788;41.368;2023-12-04T02:23:50;98453.19;;;-2.20;57.28
65384;BME280;51986;52.788;41.368;2023-12-04T02:26:20;98454.97;;;-1.96;57.90
65384;BME280;51986;52.788;41.368;2023-12-04T02:28:54;98454.59;;;-2.22;58.12
65384;BME280;51986;52.788;41.368;2023-12-04T02:31:23;98464.00;;;-2.42;58.06
65384;BME280;51986;52.788;41.368;2023-12-04T02:33:52;98480.47;;;-2.59;57.64
65384;BME280;51986;52.788;41.368;2023-12-04T02:36:24;98443.81;;;-2.77;57.49
65384;BME280;51986;52.788;41.368;2023-12-04T02:38:52;98461.75;;;-2.56;57.46
65384;BME280;51986;52.788;41.368;2023-12-04T02:41:20;98475.09;;;-2.66;56.85
65384;BME280;51986;52.788;41.368;2023-12-04T02:43:47;98474.97;;;-2.70;56.84
65384;BME280;51986;52.788;41.368;2023-12-04T02:46:15;98474.22;;;-2.70;57.23
65384;BME280;51986;52.788;41.368;2023-12-04T02:48:42;98477.69;;;-2.78;57.01
65384;BME280;51986;52.788;41.368;2023-12-04T02:51:10;98516.50;;;-2.75;57.07
65384;BME280;51986;52.788;41.368;2023-12-04T02:53:37;98507.28;;;-2.64;56.88
65384;BME280;51986;52.788;41.368;2023-12-04T02:56:05;98506.50;;;-2.52;56.63
65384;BME280;51986;52.788;41.368;2023-12-04T02:58:32;98534.78;;;-2.56;56.92
65384;BME280;51986;52.788;41.368;2023-12-04T03:01:00;98524.16;;;-2.66;56.86
65384;BME280;51986;52.788;41.368;2023-12-04T03:03:27;98537.81;;;-2.66;56.60
65384;BME280;51986;52.788;41.368;2023-12-04T03:05:54;98546.41;;;-2.62;56.91
65384;BME280;51986;52.788;41.368;2023-12-04T03:08:21;98518.28;;;-3.00;56.93
65384;BME280;51986;52.788;41.368;2023-12-04T03:10:48;98553.19;;;-3.15;57.00
65384;BME280;51986;52.788;41.368;2023-12-04T03:13:14;98561.28;;;-3.04;57.44
65384;BME280;51986;52.788;41.368;2023-12-04T03:15:42;98565.81;;;-3.01;57.55
65384;BME280;51986;52.788;41.368;2023-12-04T03:18:09;98554.94;;;-3.07;56.98
65384;BME280;51986;52.788;41.368;2023-12-04T03:20:38;98561.00;;;-3.23;56.80
65384;BME280;51986;52.788;41.368;2023-12-04T03:23:05;98549.91;;;-3.03;56.82
65384;BME280;51986;52.788;41.368;2023-12-04T03:25:32;98559.16;;;-2.90;55.93
65384;BME280;51986;52.788;41.368;2023-12-04T03:27:59;98554.94;;;-3.07;56.12
65384;BME280;51986;52.788;41.368;2023-12-04T03:30:26;98556.22;;;-3.46;56.28
65384;BME280;51986;52.788;41.368;2023-12-04T03:32:53;98586.81;;;-3.23;56.43
65384;BME280;51986;52.788;41.368;2023-12-04T03:35:21;98578.03;;;-3.10;55.72
65384;BME280;51986;52.788;41.368;2023-12-04T03:37:47;98587.69;;;-3.19;56.22
65384;BME280;51986;52.788;41.368;2023-12-04T03:40:15;98595.94;;;-3.26;55.95
65384;BME280;51986;52.788;41.368;2023-12-04T03:42:42;98593.81;;;-3.45;56.27
65384;BME280;51986;52.788;41.368;2023-12-04T03:45:10;98579.44;;;-3.34;55.91
65384;BME280;51986;52.788;41.368;2023-12-04T03:47:37;98623.97;;;-3.03;55.68
65384;BME280;51986;52.788;41.368;2023-12-04T03:50:05;98603.03;;;-3.23;55.65
65384;BME280;51986;52.788;41.368;2023-12-04T03:52:32;98604.16;;;-3.33;55.45
65384;BME280;51986;52.788;41.368;2023-12-04T03:54:59;98635.41;;;-3.13;55.51
65384;BME280;51986;52.788;41.368;2023-12-04T03:57:26;98590.72;;;-3.38;55.67
65384;BME280;51986;52.788;41.368;2023-12-04T03:59:53;98610.53;;;-3.51;56.32
65384;BME280;51986;52.788;41.368;2023-12-04T04:02:20;98626.81;;;-3.59;55.94
65384;BME280;51986;52.788;41.368;2023-12-04T04:04:47;98617.50;;;-3.51;55.82
65384;BME280;51986;52.788;41.368;2023-12-04T04:07:16;98612.16;;;-3.25;55.67
65384;BME280;51986;52.788;41.368;2023-12-04T04:09:43;98629.44;;;-3.68;55.74
65384;BME280;51986;52.788;41.368;2023-12-04T04:12:10;98637.78;;;-3.71;55.80
65384;BME280;51986;52.788;41.368;2023-12-04T04:14:38;98622.09;;;-3.57;55.86
65384;BME280;51986;52.788;41.368;2023-12-04T04:17:05;98607.38;;;-3.77;55.33
65384;BME280;51986;52.788;41.368;2023-12-04T04:19:32;98624.66;;;-3.57;55.41
65384;BME280;51986;52.788;41.368;2023-12-04T04:21:59;98660.56;;;-3.52;55.65
65384;BME280;51986;52.788;41.368;2023-12-04T04:24:26;98611.34;;;-3.59;54.91
65384;BME280;51986;52.788;41.368;2023-12-04T04:26:53;98627.56;;;-3.59;55.06
65384;BME280;51986;52.788;41.368;2023-12-04T04:29:21;98618.91;;;-3.54;55.00
65384;BME280;51986;52.788;41.368;2023-12-04T04:31:48;98641.06;;;-3.62;55.22
65384;BME280;51986;52.788;41.368;2023-12-04T04:34:15;98635.69;;;-3.48;55.16
65384;BME280;51986;52.788;41.368;2023-12-04T04:36:45;98631.47;;;-3.52;55.69
65384;BME280;51986;52.788;41.368;2023-12-04T04:39:13;98635.44;;;-3.55;55.44
65384;BME280;51986;52.788;41.368;2023-12-04T04:41:40;98630.03;;;-3.92;56.15
65384;BME280;51986;52.788;41.368;2023-12-04T04:44:07;98638.00;;;-3.55;55.86
65384;BME280;51986;52.788;41.368;2023-12-04T04:46:34;98654.38;;;-3.30;55.62
65384;BME280;51986;52.788;41.368;2023-12-04T04:49:02;98660.41;;;-3.26;56.21
65384;BME280;51986;52.788;41.368;2023-12-04T04:51:29;98648.47;;;-3.31;56.40
65384;BME280;51986;52.788;41.368;2023-12-04T04:53:56;98648.94;;;-3.37;56.59
65384;BME280;51986;52.788;41.368;2023-12-04T04:56:23;98654.00;;;-3.41;56.86
65384;BME280;51986;52.788;41.368;2023-12-04T04:58:51;98664.69;;;-3.30;56.82
65384;BME280;51986;52.788;41.368;2023-12-04T05:01:19;98674.34;;;-3.48;56.55
65384;BME280;51986;52.788;41.368;2023-12-04T05:03:46;98702.69;;;-3.39;56.31
65384;BME280;51986;52.788;41.368;2023-12-04T05:06:14;98691.00;;;-3.37;56.88
65384;BME280;51986;52.788;41.368;2023-12-04T05:08:41;98685.97;;;-3.12;56.70
65384;BME280;51986;52.788;41.368;2023-12-04T05:11:08;98678.72;;;-3.40;56.36
65384;BME280;51986;52.788;41.368;2023-12-04T05:13:35;98702.50;;;-3.13;56.60
65384;BME280;51986;52.788;41.368;2023-12-04T05:16:02;98705.16;;;-3.51;57.16
65384;BME280;51986;52.788;41.368;2023-12-04T05:18:29;98685.50;;;-3.35;56.27
65384;BME280;51986;52.788;41.368;2023-12-04T05:20:56;98707.59;;;-3.25;56.78
65384;BME280;51986;52.788;41.368;2023-12-04T05:23:23;98723.84;;;-3.54;57.27
65384;BME280;51986;52.788;41.368;2023-12-04T05:25:51;98722.34;;;-3.55;57.39
65384;BME280;51986;52.788;41.368;2023-12-04T05:28:18;98715.72;;;-3.65;57.95
65384;BME280;51986;52.788;41.368;2023-12-04T05:30:45;98734.88;;;-3.45;57.75
65384;BME280;51986;52.788;41.368;2023-12-04T05:33:12;98723.28;;;-3.60;57.15
65384;BME280;51986;52.788;41.368;2023-12-04T05:35:39;98738.44;;;-3.67;56.51
65384;BME280;51986;52.788;41.368;2023-12-04T05:38:06;98747.13;;;-3.72;55.53
65384;BME280;51986;52.788;41.368;2023-12-04T05:40:33;98744.69;;;-3.68;56.48
65384;BME280;51986;52.788;41.368;2023-12-04T05:43:00;98752.22;;;-3.54;55.39
65384;BME280;51986;52.788;41.368;2023-12-04T05:45:27;98727.25;;;-3.71;54.60
65384;BME280;51986;52.788;41.368;2023-12-04T05:47:55;98714.69;;;-3.73;54.78
65384;BME280;51986;52.788;41.368;2023-12-04T05:50:22;98739.91;;;-3.87;54.78
65384;BME280;51986;52.788;41.368;2023-12-04T05:52:49;98739.69;;;-3.73;55.24
65384;BME280;51986;52.788;41.368;2023-12-04T05:55:16;98753.22;;;-3.85;55.35
65384;BME280;51986;52.788;41.368;2023-12-04T05:57:44;98770.41;;;-3.98;55.13
65384;BME280;51986;52.788;41.368;2023-12-04T06:00:12;98762.66;;;-3.89;55.68
65384;BME280;51986;52.788;41.368;2023-12-04T06:02:40;98761.81;;;-3.72;55.08
65384;BME280;51986;52.788;41.368;2023-12-04T06:05:08;98774.75;;;-3.90;55.34
65384;BME280;51986;52.788;41.368;2023-12-04T06:07:38;98771.13;;;-3.89;54.68
65384;BME280;51986;52.788;41.368;2023-12-04T06:10:05;98781.09;;;-3.78;55.37
65384;BME280;51986;52.788;41.368;2023-12-04T06:12:33;98790.22;;;-3.90;55.09
65384;BME280;51986;52.788;41.368;2023-12-04T06:15:00;98770.66;;;-3.91;54.85
65384;BME280;51986;52.788;41.368;2023-12-04T06:17:27;98785.09;;;-3.98;55.34
65384;BME280;51986;52.788;41.368;2023-12-04T06:19:54;98799.75;;;-3.82;55.28
65384;BME280;51986;52.788;41.368;2023-12-04T06:22:22;98800.66;;;-3.77;54.76
65384;BME280;51986;52.788;41.368;2023-12-04T06:24:49;98788.59;;;-3.94;55.41
65384;BME280;51986;52.788;41.368;2023-12-04T06:27:18;98806.47;;;-3.98;55.56
65384;BME280;51986;52.788;41.368;2023-12-04T06:29:45;98787.25;;;-4.18;55.29
65384;BME280;51986;52.788;41.368;2023-12-04T06:32:17;98818.53;;;-3.72;55.59
65384;BME280;51986;52.788;41.368;2023-12-04T06:34:44;98822.44;;;-3.66;55.43
65384;BME280;51986;52.788;41.368;2023-12-04T06:37:12;98826.72;;;-3.70;55.14
65384;BME280;51986;52.788;41.368;2023-12-04T06:39:40;98807.94;;;-3.79;54.85
65384;BME280;51986;52.788;41.368;2023-12-04T06:42:08;98828.56;;;-3.88;55.45
65384;BME280;51986;52.788;41.368;2023-12-04T06:44:36;98824.31;;;-3.84;55.95
65384;BME280;51986;52.788;41.368;2023-12-04T06:47:04;98839.72;;;-3.58;55.52
65384;BME280;51986;52.788;41.368;2023-12-04T06:49:32;98853.25;;;-3.70;55.48
65384;BME280;51986;52.788;41.368;2023-12-04T06:52:00;98859.84;;;-3.43;54.88
65384;BME280;51986;52.788;41.368;2023-12-04T06:54:27;98880.22;;;-3.59;56.09
65384;BME280;51986;52.788;41.368;2023-12-04T06:56:54;98854.00;;;-3.69;56.18
65384;BME280;51986;52.788;41.368;2023-12-04T06:59:21;98871.47;;;-3.75;56.88
65384;BME280;51986;52.788;41.368;2023-12-04T07:01:48;98872.66;;;-3.64;57.17
65384;BME280;51986;52.788;41.368;2023-12-04T07:04:16;98848.97;;;-3.57;56.51
65384;BME280;51986;52.788;41.368;2023-12-04T07:06:43;98849.53;;;-3.43;56.24
65384;BME280;51986;52.788;41.368;2023-12-04T07:09:10;98875.31;;;-3.51;56.58
65384;BME280;51986;52.788;41.368;2023-12-04T07:11:37;98888.94;;;-3.42;56.95
65384;BME280;51986;52.788;41.368;2023-12-04T07:14:04;98871.19;;;-3.26;56.18
65384;BME280;51986;52.788;41.368;2023-12-04T07:16:38;98876.03;;;-3.34;57.32
65384;BME280;51986;52.788;41.368;2023-12-04T07:19:05;98869.22;;;-3.38;56.88
65384;BME280;51986;52.788;41.368;2023-12-04T07:21:32;98875.13;;;-3.29;56.57
65384;BME280;51986;52.788;41.368;2023-12-04T07:24:00;98883.69;;;-3.46;57.38
65384;BME280;51986;52.788;41.368;2023-12-04T07:26:27;98900.00;;;-3.33;56.89
65384;BME280;51986;52.788;41.368;2023-12-04T07:28:54;98896.84;;;-3.39;56.82
65384;BME280;51986;52.788;41.368;2023-12-04T07:31:21;98880.22;;;-3.59;57.83
65384;BME280;51986;52.788;41.368;2023-12-04T07:33:48;98910.09;;;-3.66;57.77
65384;BME280;51986;52.788;41.368;2023-12-04T07:36:15;98909.28;;;-3.41;58.00
65384;BME280;51986;52.788;41.368;2023-12-04T07:38:42;98910.78;;;-3.31;57.97
65384;BME280;51986;52.788;41.368;2023-12-04T07:41:09;98914.41;;;-3.32;58.13
65384;BME280;51986;52.788;41.368;2023-12-04T07:43:36;98893.53;;;-3.48;57.99
65384;BME280;51986;52.788;41.368;2023-12-04T07:46:03;98923.97;;;-3.33;58.56
65384;BME280;51986;52.788;41.368;2023-12-04T07:48:31;98947.81;;;-3.27;57.84
65384;BME280;51986;52.788;41.368;2023-12-04T07:50:58;98935.41;;;-3.04;58.09
65384;BME280;51986;52.788;41.368;2023-12-04T07:53:25;98936.22;;;-3.12;58.59
65384;BME280;51986;52.788;41.368;2023-12-04T07:55:52;98947.63;;;-3.22;58.74
65384;BME280;51986;52.788;41.368;2023-12-04T07:58:19;98943.72;;;-2.90;58.20
65384;BME280;51986;52.788;41.368;2023-12-04T08:00:46;98931.56;;;-2.89;57.13
65384;BME280;51986;52.788;41.368;2023-12-04T08:03:13;98926.81;;;-3.08;59.99
65384;BME280;51986;52.788;41.368;2023-12-04T08:05:40;98933.53;;;-2.57;57.03
65384;BME280;51986;52.788;41.368;2023-12-04T08:08:07;98940.81;;;-2.50;56.41
65384;BME280;51986;52.788;41.368;2023-12-04T08:10:34;98928.66;;;-2.49;56.46
65384;BME280;51986;52.788;41.368;2023-12-04T08:13:01;98929.53;;;-2.45;56.58
65384;BME280;51986;52.788;41.368;2023-12-04T08:15:28;98966.34;;;-2.28;55.92
65384;BME280;51986;52.788;41.368;2023-12-04T08:17:55;98941.06;;;-2.22;55.70
65384;BME280;51986;52.788;41.368;2023-12-04T08:20:22;98933.25;;;-2.13;55.44
65384;BME280;51986;52.788;41.368;2023-12-04T08:23:02;98931.63;;;-2.39;56.41
65384;BME280;51986;52.788;41.368;2023-12-04T08:25:29;98938.75;;;-2.36;56.15
65384;BME280;51986;52.788;41.368;2023-12-04T08:27:58;98940.59;;;-2.36;55.76
65384;BME280;51986;52.788;41.368;2023-12-04T08:30:25;98937.88;;;-2.19;55.79
65384;BME280;51986;52.788;41.368;2023-12-04T08:32:52;98943.09;;;-2.28;55.21
65384;BME280;51986;52.788;41.368;2023-12-04T08:35:19;98931.44;;;-1.92;54.79
65384;BME280;51986;52.788;41.368;2023-12-04T08:37:46;98928.44;;;-1.61;54.13
65384;BME280;51986;52.788;41.368;2023-12-04T08:40:14;98937.22;;;-1.74;54.19
65384;BME280;51986;52.788;41.368;2023-12-04T08:42:41;98930.19;;;-1.86;54.61
65384;BME280;51986;52.788;41.368;2023-12-04T08:45:09;98940.53;;;-2.07;54.62
65384;BME280;51986;52.788;41.368;2023-12-04T08:47:36;98956.44;;;-1.63;54.62
65384;BME280;51986;52.788;41.368;2023-12-04T08:50:04;98949.03;;;-1.85;54.00
65384;BME280;51986;52.788;41.368;2023-12-04T08:52:31;98954.53;;;-1.87;54.28
65384;BME280;51986;52.788;41.368;2023-12-04T08:54:58;98938.63;;;-2.18;54.50
65384;BME280;51986;52.788;41.368;2023-12-04T08:57:26;98959.94;;;-2.21;54.16
65384;BME280;51986;52.788;41.368;2023-12-04T08:59:53;98959.66;;;-2.29;54.59
65384;BME280;51986;52.788;41.368;2023-12-04T09:02:20;98963.16;;;-2.24;53.99
65384;BME280;51986;52.788;41.368;2023-12-04T09:04:47;98958.09;;;-1.79;53.25
65384;BME280;51986;52.788;41.368;2023-12-04T09:07:15;98939.69;;;-2.19;53.54
65384;BME280;51986;52.788;41.368;2023-12-04T09:09:45;98969.72;;;-2.06;53.44
65384;BME280;51986;52.788;41.368;2023-12-04T09:12:12;98952.72;;;-2.37;53.93
65384;BME280;51986;52.788;41.368;2023-12-04T09:14:39;98978.59;;;-1.95;53.34
65384;BME280;51986;52.788;41.368;2023-12-04T09:17:06;98973.94;;;-1.81;52.64
65384;BME280;51986;52.788;41.368;2023-12-04T09:19:33;98978.59;;;-1.95;52.80
65384;BME280;51986;52.788;41.368;2023-12-04T09:22:00;98984.56;;;-1.61;51.98
65384;BME280;51986;52.788;41.368;2023-12-04T09:24:42;98986.94;;;-1.68;52.08
65384;BME280;51986;52.788;41.368;2023-12-04T09:27:09;98996.25;;;-1.76;53.14
65384;BME280;51986;52.788;41.368;2023-12-04T09:29:36;98985.81;;;-2.30;53.89
65384;BME280;51986;52.788;41.368;2023-12-04T09:32:03;98992.84;;;-1.89;52.65
65384;BME280;51986;52.788;41.368;2023-12-04T09:34:31;98983.38;;;-1.85;52.73
65384;BME280;51986;52.788;41.368;2023-12-04T09:36:58;99006.59;;;-1.97;53.11
65384;BME280;51986;52.788;41.368;2023-12-04T09:39:36;99008.88;;;-1.95;53.01
65384;BME280;51986;52.788;41.368;2023-12-04T09:42:04;99018.25;;;-1.91;52.70
65384;BME280;51986;52.788;41.368;2023-12-04T09:44:32;99017.69;;;-1.96;53.01
65384;BME280;51986;52.788;41.368;2023-12-04T09:47:00;99029.16;;;-2.06;52.93
65384;BME280;51986;52.788;41.368;2023-12-04T09:49:28;99041.56;;;-1.99;53.34
65384;BME280;51986;52.788;41.368;2023-12-04T09:51:57;99033.97;;;-1.96;53.09
65384;BME280;51986;52.788;41.368;2023-12-04T09:54:24;99030.84;;;-2.10;53.28
65384;BME280;51986;52.788;41.368;2023-12-04T09:56:52;99020.31;;;-2.05;53.68
65384;BME280;51986;52.788;41.368;2023-12-04T09:59:23;99049.91;;;-1.94;53.67
65384;BME280;51986;52.788;41.368;2023-12-04T10:01:51;99008.03;;;-2.38;53.92
65384;BME280;51986;52.788;41.368;2023-12-04T10:04:19;99015.22;;;-2.14;54.25
65384;BME280;51986;52.788;41.368;2023-12-04T10:06:49;99062.19;;;-2.12;54.13
65384;BME280;51986;52.788;41.368;2023-12-04T10:09:17;99042.44;;;-2.16;54.39
65384;BME280;51986;52.788;41.368;2023-12-04T10:11:45;99040.78;;;-2.21;54.79
65384;BME280;51986;52.788;41.368;2023-12-04T10:14:15;99059.91;;;-2.13;54.19
65384;BME280;51986;52.788;41.368;2023-12-04T10:16:43;99041.22;;;-2.48;54.64
65384;BME280;51986;52.788;41.368;2023-12-04T10:19:22;99052.59;;;-2.41;55.03
65384;BME280;51986;52.788;41.368;2023-12-04T10:21:50;99054.53;;;-2.38;54.35
65384;BME280;51986;52.788;41.368;2023-12-04T10:24:30;99045.28;;;-2.39;54.30
65384;BME280;51986;52.788;41.368;2023-12-04T10:26:58;99035.50;;;-2.63;54.62
65384;BME280;51986;52.788;41.368;2023-12-04T10:29:29;99051.00;;;-2.63;54.88
65384;BME280;51986;52.788;41.368;2023-12-04T10:32:06;99050.28;;;-2.89;55.05
65384;BME280;51986;52.788;41.368;2023-12-04T10:34:33;99048.50;;;-2.89;55.76
65384;BME280;51986;52.788;41.368;2023-12-04T10:37:02;99020.13;;;-3.06;55.83
65384;BME280;51986;52.788;41.368;2023-12-04T10:39:29;99085.97;;;-2.83;55.86
65384;BME280;51986;52.788;41.368;2023-12-04T10:42:03;99072.19;;;-2.95;55.70
65384;BME280;51986;52.788;41.368;2023-12-04T10:44:30;99060.22;;;-3.17;56.09
65384;BME280;51986;52.788;41.368;2023-12-04T10:46:59;99076.56;;;-2.78;56.05
65384;BME280;51986;52.788;41.368;2023-12-04T10:49:27;99071.72;;;-2.97;55.82
65384;BME280;51986;52.788;41.368;2023-12-04T10:51:57;99077.47;;;-2.74;55.84
65384;BME280;51986;52.788;41.368;2023-12-04T10:54:25;99084.72;;;-2.68;55.57
65384;BME280;51986;52.788;41.368;2023-12-04T10:56:58;99083.19;;;-2.60;55.16
65384;BME280;51986;52.788;41.368;2023-12-04T10:59:32;99076.81;;;-2.63;55.37
65384;BME280;51986;52.788;41.368;2023-12-04T11:02:05;99086.31;;;-2.93;55.77
65384;BME280;51986;52.788;41.368;2023-12-04T11:04:35;99083.72;;;-3.10;56.50
65384;BME280;51986;52.788;41.368;2023-12-04T11:07:03;99114.38;;;-3.00;56.91
65384;BME280;51986;52.788;41.368;2023-12-04T11:09:35;99094.66;;;-2.96;57.14
65384;BME280;51986;52.788;41.368;2023-12-04T11:12:08;99108.72;;;-2.67;56.73
65384;BME280;51986;52.788;41.368;2023-12-04T11:14:46;99089.16;;;-2.86;57.19
65384;BME280;51986;52.788;41.368;2023-12-04T11:17:17;99098.53;;;-2.64;56.73
65384;BME280;51986;52.788;41.368;2023-12-04T11:20:13;99092.63;;;-2.73;57.71
65384;BME280;51986;52.788;41.368;2023-12-04T11:22:45;99096.56;;;-2.58;57.65
65384;BME280;51986;52.788;41.368;2023-12-04T11:25:14;99107.38;;;-2.73;57.88
65384;BME280;51986;52.788;41.368;2023-12-04T11:27:41;99088.97;;;-2.63;57.34
65384;BME280;51986;52.788;41.368;2023-12-04T11:30:10;99105.59;;;-2.35;57.35
65384;BME280;51986;52.788;41.368;2023-12-04T11:32:48;99110.13;;;-2.32;56.88
65384;BME280;51986;52.788;41.368;2023-12-04T11:35:16;99114.19;;;-2.60;57.13
65384;BME280;51986;52.788;41.368;2023-12-04T11:37:47;99102.28;;;-2.44;56.93
65384;BME280;51986;52.788;41.368;2023-12-04T11:40:15;99128.59;;;-2.50;56.93
65384;BME280;51986;52.788;41.368;2023-12-04T11:42:43;99146.97;;;-2.52;57.08
65384;BME280;51986;52.788;41.368;2023-12-04T11:45:19;99131.06;;;-2.16;57.11
65384;BME280;51986;52.788;41.368;2023-12-04T11:47:57;99123.69;;;-2.35;56.49
65384;BME280;51986;52.788;41.368;2023-12-04T11:50:25;99134.19;;;-2.40;56.26
65384;BME280;51986;52.788;41.368;2023-12-04T11:52:52;99140.44;;;-2.49;56.07
65384;BME280;51986;52.788;41.368;2023-12-04T11:55:22;99144.72;;;-2.71;56.70
65384;BME280;51986;52.788;41.368;2023-12-04T11:57:50;99155.38;;;-2.90;55.34
65384;BME280;51986;52.788;41.368;2023-12-04T12:03:01;99122.88;;;-2.82;53.97
65384;BME280;51986;52.788;41.368;2023-12-04T12:05:49;99136.25;;;-2.89;54.03
65384;BME280;51986;52.788;41.368;2023-12-04T12:08:17;99144.44;;;-3.30;55.09
65384;BME280;51986;52.788;41.368;2023-12-04T12:10:44;99103.31;;;-3.26;54.09
65384;BME280;51986;52.788;41.368;2023-12-04T12:13:11;99130.31;;;-3.15;54.39
65384;BME280;51986;52.788;41.368;2023-12-04T12:15:39;99129.88;;;-3.26;53.91
65384;BME280;51986;52.788;41.368;2023-12-04T12:18:06;99132.59;;;-3.31;54.63
65384;BME280;51986;52.788;41.368;2023-12-04T12:20:36;99137.72;;;-3.48;54.76
65384;BME280;51986;52.788;41.368;2023-12-04T12:23:03;99127.59;;;-3.36;54.71
65384;BME280;51986;52.788;41.368;2023-12-04T12:25:31;99157.44;;;-3.52;55.17
65384;BME280;51986;52.788;41.368;2023-12-04T12:28:02;99138.66;;;-3.44;54.72
65384;BME280;51986;52.788;41.368;2023-12-04T12:30:29;99144.56;;;-3.44;54.49
65384;BME280;51986;52.788;41.368;2023-12-04T12:32:56;99155.19;;;-3.54;55.15
65384;BME280;51986;52.788;41.368;2023-12-04T12:35:24;99147.78;;;-3.29;54.07
65384;BME280;51986;52.788;41.368;2023-12-04T12:37:51;99139.56;;;-3.40;54.62
65384;BME280;51986;52.788;41.368;2023-12-04T12:40:23;99153.09;;;-3.35;55.00
65384;BME280;51986;52.788;41.368;2023-12-04T12:42:50;99109.84;;;-3.46;54.71
65384;BME280;51986;52.788;41.368;2023-12-04T12:45:17;99144.13;;;-3.37;54.47
65384;BME280;51986;52.788;41.368;2023-12-04T12:47:44;99174.94;;;-3.41;54.97
65384;BME280;51986;52.788;41.368;2023-12-04T12:50:12;99136.94;;;-3.66;55.66
65384;BME280;51986;52.788;41.368;2023-12-04T12:52:39;99163.56;;;-3.31;55.73
65384;BME280;51986;52.788;41.368;2023-12-04T12:55:06;99152.63;;;-3.45;55.85
65384;BME280;51986;52.788;41.368;2023-12-04T12:57:33;99176.69;;;-3.59;55.63